sensor_id;sensor_type;location;lat;lon;timestamp;P1;durP1;ratioP1;P2;durP2;ratioP2
9082;SDS011;4577;48.704;9.000;2023-02-14T00:02:15;36.20;;;20.93;;
9082;SDS011;4577;48.704;9.000;2023-02-14T00:04:41;25.87;;;16.43;;
9082;SDS011;4577;48.704;9.000;2023-02-14T00:07:09;22.17;;;14.17;;
9082;SDS011;4577;48.704;9.000;2023-02-14T00:09:36;21.70;;;13.60;;
9082;SDS011;4577;48.704;9.000;2023-02-14T00:12:02;19.37;;;13.27;;
9082;SDS011;4577;48.704;9.000;2023-02-14T00:14:28;23.10;;;14.30;;
9082;SDS011;4577;48.704;9.000;2023-02-14T00:17:12;19.40;;;12.43;;
9082;SDS011;4577;48.704;9.000;2023-02-14T00:19:38;21.50;;;13.30;;
9082;SDS011;4577;48.704;9.000;2023-02-14T00:22:04;21.20;;;12.60;;
9082;SDS011;4577;48.704;9.000;2023-02-14T00:24:30;20.67;;;13.17;;
9082;SDS011;4577;48.704;9.000;2023-02-14T00:26:57;18.90;;;12.60;;
9082;SDS011;4577;48.704;9.000;2023-02-14T00:29:29;23.27;;;12.80;;
9082;SDS011;4577;48.704;9.000;2023-02-14T00:31:56;21.80;;;12.93;;
9082;SDS011;4577;48.704;9.000;2023-02-14T00:34:22;24.53;;;15.17;;
9082;SDS011;4577;48.704;9.000;2023-02-14T00:36:48;22.30;;;13.17;;
9082;SDS011;4577;48.704;9.000;2023-02-14T00:39:14;22.20;;;13.93;;
9082;SDS011;4577;48.704;9.000;2023-02-14T00:41:41;24.13;;;13.77;;
9082;SDS011;4577;48.704;9.000;2023-02-14T00:44:08;22.10;;;13.63;;
9082;SDS011;4577;48.704;9.000;2023-02-14T00:46:34;22.33;;;13.50;;
9082;SDS011;4577;48.704;9.000;2023-02-14T00:49:00;24.90;;;14.90;;
9082;SDS011;4577;48.704;9.000;2023-02-14T00:51:27;23.03;;;13.60;;
9082;SDS011;4577;48.704;9.000;2023-02-14T00:53:53;27.40;;;13.77;;
9082;SDS011;4577;48.704;9.000;2023-02-14T00:56:19;20.40;;;13.50;;
9082;SDS011;4577;48.704;9.000;2023-02-14T00:58:45;23.00;;;13.33;;
9082;SDS011;4577;48.704;9.000;2023-02-14T01:01:12;23.03;;;14.00;;
9082;SDS011;4577;48.704;9.000;2023-02-14T01:03:38;23.83;;;14.50;;
9082;SDS011;4577;48.704;9.000;2023-02-14T01:06:04;21.50;;;14.37;;
9082;SDS011;4577;48.704;9.000;2023-02-14T01:08:31;22.90;;;14.33;;
9082;SDS011;4577;48.704;9.000;2023-02-14T01:10:57;23.20;;;14.40;;
9082;SDS011;4577;48.704;9.000;2023-02-14T01:13:40;24.53;;;15.03;;
9082;SDS011;4577;48.704;9.000;2023-02-14T01:16:08;21.20;;;13.77;;
9082;SDS011;4577;48.704;9.000;2023-02-14T01:18:36;23.27;;;14.63;;
9082;SDS011;4577;48.704;9.000;2023-02-14T01:21:09;22.00;;;13.53;;
9082;SDS011;4577;48.704;9.000;2023-02-14T01:23:35;26.33;;;14.17;;
9082;SDS011;4577;48.704;9.000;2023-02-14T01:26:05;22.77;;;14.03;;
9082;SDS011;4577;48.704;9.000;2023-02-14T01:28:31;23.73;;;13.80;;
9082;SDS011;4577;48.704;9.000;2023-02-14T01:31:04;21.77;;;14.17;;
9082;SDS011;4577;48.704;9.000;2023-02-14T01:33:30;20.53;;;13.47;;
9082;SDS011;4577;48.704;9.000;2023-02-14T01:35:56;23.07;;;14.00;;
9082;SDS011;4577;48.704;9.000;2023-02-14T01:38:22;23.83;;;13.93;;
9082;SDS011;4577;48.704;9.000;2023-02-14T01:40:48;23.23;;;14.37;;
9082;SDS011;4577;48.704;9.000;2023-02-14T01:43:14;21.77;;;14.17;;
9082;SDS011;4577;48.704;9.000;2023-02-14T01:45:40;22.10;;;13.73;;
9082;SDS011;4577;48.704;9.000;2023-02-14T01:48:06;22.60;;;14.00;;
9082;SDS011;4577;48.704;9.000;2023-02-14T01:50:34;23.23;;;14.60;;
9082;SDS011;4577;48.704;9.000;2023-02-14T01:53:01;24.30;;;14.07;;
9082;SDS011;4577;48.704;9.000;2023-02-14T01:55:32;26.37;;;14.13;;
9082;SDS011;4577;48.704;9.000;2023-02-14T01:58:05;25.00;;;14.67;;
9082;SDS011;4577;48.704;9.000;2023-02-14T02:00:35;24.67;;;14.77;;
9082;SDS011;4577;48.704;9.000;2023-02-14T02:03:21;22.60;;;14.67;;
9082;SDS011;4577;48.704;9.000;2023-02-14T02:06:13;24.07;;;14.03;;
9082;SDS011;4577;48.704;9.000;2023-02-14T02:08:47;23.87;;;14.17;;
9082;SDS011;4577;48.704;9.000;2023-02-14T02:11:32;24.33;;;14.00;;
9082;SDS011;4577;48.704;9.000;2023-02-14T02:13:59;21.73;;;13.43;;
9082;SDS011;4577;48.704;9.000;2023-02-14T02:27:33;23.10;;;14.20;;
9082;SDS011;4577;48.704;9.000;2023-02-14T02:30:19;21.13;;;14.10;;
9082;SDS011;4577;48.704;9.000;2023-02-14T02:35:52;23.23;;;14.50;;
9082;SDS011;4577;48.704;9.000;2023-02-14T02:44:17;24.57;;;15.17;;
9082;SDS011;4577;48.704;9.000;2023-02-14T02:46:48;24.00;;;14.53;;
9082;SDS011;4577;48.704;9.000;2023-02-14T02:52:47;22.23;;;13.40;;
9082;SDS011;4577;48.704;9.000;2023-02-14T02:55:15;22.00;;;14.20;;
9082;SDS011;4577;48.704;9.000;2023-02-14T02:57:47;25.30;;;14.10;;
9082;SDS011;4577;48.704;9.000;2023-02-14T03:00:13;22.00;;;13.43;;
9082;SDS011;4577;48.704;9.000;2023-02-14T03:02:41;22.40;;;14.30;;
9082;SDS011;4577;48.704;9.000;2023-02-14T03:05:27;25.97;;;16.00;;
9082;SDS011;4577;48.704;9.000;2023-02-14T03:07:54;23.90;;;15.30;;
9082;SDS011;4577;48.704;9.000;2023-02-14T03:10:21;22.50;;;14.77;;
9082;SDS011;4577;48.704;9.000;2023-02-14T03:23:57;20.30;;;12.60;;
9082;SDS011;4577;48.704;9.000;2023-02-14T03:26:27;21.23;;;13.07;;
9082;SDS011;4577;48.704;9.000;2023-02-14T03:37:13;21.20;;;13.07;;
9082;SDS011;4577;48.704;9.000;2023-02-14T03:42:07;27.03;;;13.93;;
9082;SDS011;4577;48.704;9.000;2023-02-14T03:44:36;21.50;;;13.17;;
9082;SDS011;4577;48.704;9.000;2023-02-14T03:47:04;22.23;;;13.63;;
9082;SDS011;4577;48.704;9.000;2023-02-14T03:49:33;27.60;;;14.70;;
9082;SDS011;4577;48.704;9.000;2023-02-14T03:52:01;29.60;;;16.73;;
9082;SDS011;4577;48.704;9.000;2023-02-14T03:54:27;27.33;;;16.17;;
9082;SDS011;4577;48.704;9.000;2023-02-14T03:56:58;33.87;;;18.27;;
9082;SDS011;4577;48.704;9.000;2023-02-14T03:59:36;24.87;;;15.20;;
9082;SDS011;4577;48.704;9.000;2023-02-14T04:02:04;25.60;;;14.40;;
9082;SDS011;4577;48.704;9.000;2023-02-14T04:04:32;29.50;;;14.70;;
9082;SDS011;4577;48.704;9.000;2023-02-14T04:07:07;25.50;;;14.67;;
9082;SDS011;4577;48.704;9.000;2023-02-14T04:09:33;24.87;;;14.27;;
9082;SDS011;4577;48.704;9.000;2023-02-14T04:11:59;25.00;;;14.10;;
9082;SDS011;4577;48.704;9.000;2023-02-14T04:14:25;23.53;;;14.27;;
9082;SDS011;4577;48.704;9.000;2023-02-14T04:16:53;28.30;;;14.70;;
9082;SDS011;4577;48.704;9.000;2023-02-14T04:19:38;23.90;;;15.10;;
9082;SDS011;4577;48.704;9.000;2023-02-14T04:22:03;29.40;;;17.70;;
9082;SDS011;4577;48.704;9.000;2023-02-14T04:24:29;27.23;;;14.70;;
9082;SDS011;4577;48.704;9.000;2023-02-14T04:26:55;22.70;;;14.43;;
9082;SDS011;4577;48.704;9.000;2023-02-14T04:32:12;28.40;;;15.67;;
9082;SDS011;4577;48.704;9.000;2023-02-14T04:34:39;27.30;;;15.70;;
9082;SDS011;4577;48.704;9.000;2023-02-14T04:37:05;30.27;;;15.37;;
9082;SDS011;4577;48.704;9.000;2023-02-14T04:39:31;24.30;;;15.13;;
9082;SDS011;4577;48.704;9.000;2023-02-14T04:41:57;31.90;;;16.43;;
9082;SDS011;4577;48.704;9.000;2023-02-14T04:44:23;33.33;;;15.27;;
9082;SDS011;4577;48.704;9.000;2023-02-14T04:46:50;27.27;;;15.67;;
9082;SDS011;4577;48.704;9.000;2023-02-14T04:49:16;27.30;;;15.53;;
9082;SDS011;4577;48.704;9.000;2023-02-14T04:51:42;24.87;;;14.80;;
9082;SDS011;4577;48.704;9.000;2023-02-14T04:54:08;29.63;;;15.00;;
9082;SDS011;4577;48.704;9.000;2023-02-14T04:56:34;23.87;;;14.57;;
9082;SDS011;4577;48.704;9.000;2023-02-14T04:59:00;22.03;;;13.20;;
9082;SDS011;4577;48.704;9.000;2023-02-14T05:01:26;26.50;;;13.93;;
9082;SDS011;4577;48.704;9.000;2023-02-14T05:03:51;26.90;;;15.97;;
9082;SDS011;4577;48.704;9.000;2023-02-14T05:06:17;23.60;;;14.80;;
9082;SDS011;4577;48.704;9.000;2023-02-14T05:08:43;26.40;;;14.50;;
9082;SDS011;4577;48.704;9.000;2023-02-14T05:11:09;25.00;;;15.07;;
9082;SDS011;4577;48.704;9.000;2023-02-14T05:13:35;26.80;;;14.87;;
9082;SDS011;4577;48.704;9.000;2023-02-14T05:16:01;25.47;;;14.73;;
9082;SDS011;4577;48.704;9.000;2023-02-14T05:18:27;25.93;;;15.10;;
9082;SDS011;4577;48.704;9.000;2023-02-14T05:20:53;24.33;;;14.40;;
9082;SDS011;4577;48.704;9.000;2023-02-14T05:23:20;23.80;;;13.60;;
9082;SDS011;4577;48.704;9.000;2023-02-14T05:25:46;25.23;;;14.60;;
9082;SDS011;4577;48.704;9.000;2023-02-14T05:28:13;25.93;;;14.30;;
9082;SDS011;4577;48.704;9.000;2023-02-14T05:30:39;25.17;;;14.23;;
9082;SDS011;4577;48.704;9.000;2023-02-14T05:33:05;27.10;;;15.10;;
9082;SDS011;4577;48.704;9.000;2023-02-14T05:35:31;24.30;;;14.63;;
9082;SDS011;4577;48.704;9.000;2023-02-14T05:37:57;26.47;;;13.80;;
9082;SDS011;4577;48.704;9.000;2023-02-14T05:40:23;22.37;;;13.80;;
9082;SDS011;4577;48.704;9.000;2023-02-14T05:42:50;25.77;;;13.90;;
9082;SDS011;4577;48.704;9.000;2023-02-14T05:45:16;25.80;;;15.03;;
9082;SDS011;4577;48.704;9.000;2023-02-14T05:47:42;22.80;;;13.10;;
9082;SDS011;4577;48.704;9.000;2023-02-14T05:50:08;25.00;;;15.10;;
9082;SDS011;4577;48.704;9.000;2023-02-14T05:52:34;26.63;;;14.67;;
9082;SDS011;4577;48.704;9.000;2023-02-14T05:55:00;25.63;;;15.53;;
9082;SDS011;4577;48.704;9.000;2023-02-14T05:57:26;25.30;;;15.50;;
9082;SDS011;4577;48.704;9.000;2023-02-14T05:59:52;28.03;;;16.17;;
9082;SDS011;4577;48.704;9.000;2023-02-14T06:02:18;27.27;;;15.87;;
9082;SDS011;4577;48.704;9.000;2023-02-14T06:04:44;27.43;;;15.87;;
9082;SDS011;4577;48.704;9.000;2023-02-14T06:07:09;29.33;;;15.73;;
9082;SDS011;4577;48.704;9.000;2023-02-14T06:09:35;29.53;;;15.20;;
9082;SDS011;4577;48.704;9.000;2023-02-14T06:12:01;28.40;;;15.23;;
9082;SDS011;4577;48.704;9.000;2023-02-14T06:14:27;30.27;;;16.07;;
9082;SDS011;4577;48.704;9.000;2023-02-14T06:16:53;37.87;;;17.53;;
9082;SDS011;4577;48.704;9.000;2023-02-14T06:19:19;37.13;;;17.43;;
9082;SDS011;4577;48.704;9.000;2023-02-14T06:21:45;30.97;;;15.80;;
9082;SDS011;4577;48.704;9.000;2023-02-14T06:24:12;37.60;;;17.17;;
9082;SDS011;4577;48.704;9.000;2023-02-14T06:26:38;31.40;;;15.90;;
9082;SDS011;4577;48.704;9.000;2023-02-14T06:29:03;29.90;;;16.10;;
9082;SDS011;4577;48.704;9.000;2023-02-14T06:31:30;31.97;;;16.57;;
9082;SDS011;4577;48.704;9.000;2023-02-14T06:33:56;28.83;;;16.60;;
9082;SDS011;4577;48.704;9.000;2023-02-14T06:36:21;30.43;;;16.00;;
9082;SDS011;4577;48.704;9.000;2023-02-14T06:38:48;40.70;;;16.30;;
9082;SDS011;4577;48.704;9.000;2023-02-14T06:41:14;55.50;;;17.83;;
9082;SDS011;4577;48.704;9.000;2023-02-14T06:43:44;31.17;;;16.97;;
9082;SDS011;4577;48.704;9.000;2023-02-14T06:46:12;43.83;;;17.67;;
9082;SDS011;4577;48.704;9.000;2023-02-14T06:48:38;57.93;;;19.33;;
9082;SDS011;4577;48.704;9.000;2023-02-14T06:51:05;34.03;;;16.40;;
9082;SDS011;4577;48.704;9.000;2023-02-14T06:53:31;35.93;;;17.17;;
9082;SDS011;4577;48.704;9.000;2023-02-14T06:55:57;35.00;;;16.57;;
9082;SDS011;4577;48.704;9.000;2023-02-14T06:58:23;57.43;;;21.27;;
9082;SDS011;4577;48.704;9.000;2023-02-14T07:00:49;59.07;;;21.67;;
9082;SDS011;4577;48.704;9.000;2023-02-14T07:03:15;34.63;;;20.00;;
9082;SDS011;4577;48.704;9.000;2023-02-14T07:05:41;119.93;;;24.70;;
9082;SDS011;4577;48.704;9.000;2023-02-14T07:08:09;42.83;;;17.50;;
9082;SDS011;4577;48.704;9.000;2023-02-14T07:10:35;34.70;;;15.67;;
9082;SDS011;4577;48.704;9.000;2023-02-14T07:13:02;38.17;;;16.27;;
9082;SDS011;4577;48.704;9.000;2023-02-14T07:15:28;42.57;;;17.80;;
9082;SDS011;4577;48.704;9.000;2023-02-14T07:17:54;39.10;;;17.20;;
9082;SDS011;4577;48.704;9.000;2023-02-14T07:20:19;28.63;;;16.27;;
9082;SDS011;4577;48.704;9.000;2023-02-14T07:22:45;28.93;;;15.83;;
9082;SDS011;4577;48.704;9.000;2023-02-14T07:25:12;58.97;;;20.13;;
9082;SDS011;4577;48.704;9.000;2023-02-14T07:27:38;33.97;;;16.47;;
9082;SDS011;4577;48.704;9.000;2023-02-14T07:30:05;29.80;;;16.30;;
9082;SDS011;4577;48.704;9.000;2023-02-14T07:32:31;42.00;;;17.20;;
9082;SDS011;4577;48.704;9.000;2023-02-14T07:34:57;38.53;;;18.23;;
9082;SDS011;4577;48.704;9.000;2023-02-14T07:37:23;35.37;;;17.90;;
9082;SDS011;4577;48.704;9.000;2023-02-14T07:39:49;42.07;;;17.27;;
9082;SDS011;4577;48.704;9.000;2023-02-14T07:42:15;30.93;;;16.07;;
9082;SDS011;4577;48.704;9.000;2023-02-14T07:44:41;37.27;;;18.53;;
9082;SDS011;4577;48.704;9.000;2023-02-14T07:47:09;34.03;;;18.30;;
9082;SDS011;4577;48.704;9.000;2023-02-14T07:49:34;35.53;;;18.07;;
9082;SDS011;4577;48.704;9.000;2023-02-14T07:52:01;31.93;;;17.60;;
9082;SDS011;4577;48.704;9.000;2023-02-14T07:54:27;39.40;;;19.10;;
9082;SDS011;4577;48.704;9.000;2023-02-14T07:56:53;42.53;;;20.20;;
9082;SDS011;4577;48.704;9.000;2023-02-14T07:59:19;40.87;;;21.40;;
9082;SDS011;4577;48.704;9.000;2023-02-14T08:01:45;38.57;;;21.27;;
9082;SDS011;4577;48.704;9.000;2023-02-14T08:04:11;42.30;;;20.90;;
9082;SDS011;4577;48.704;9.000;2023-02-14T08:06:38;40.57;;;22.10;;
9082;SDS011;4577;48.704;9.000;2023-02-14T08:09:05;43.30;;;21.93;;
9082;SDS011;4577;48.704;9.000;2023-02-14T08:11:31;46.83;;;22.43;;
9082;SDS011;4577;48.704;9.000;2023-02-14T08:14:16;53.37;;;22.47;;
9082;SDS011;4577;48.704;9.000;2023-02-14T08:16:42;64.23;;;24.17;;
9082;SDS011;4577;48.704;9.000;2023-02-14T08:19:07;46.47;;;21.10;;
9082;SDS011;4577;48.704;9.000;2023-02-14T08:21:33;41.03;;;21.20;;
9082;SDS011;4577;48.704;9.000;2023-02-14T08:23:59;38.23;;;21.00;;
9082;SDS011;4577;48.704;9.000;2023-02-14T08:26:25;52.33;;;21.07;;
9082;SDS011;4577;48.704;9.000;2023-02-14T08:28:51;49.73;;;22.30;;
9082;SDS011;4577;48.704;9.000;2023-02-14T08:31:25;47.70;;;21.60;;
9082;SDS011;4577;48.704;9.000;2023-02-14T08:33:52;90.03;;;23.47;;
9082;SDS011;4577;48.704;9.000;2023-02-14T08:36:18;91.87;;;23.50;;
9082;SDS011;4577;48.704;9.000;2023-02-14T08:38:44;95.27;;;24.97;;
9082;SDS011;4577;48.704;9.000;2023-02-14T08:41:11;41.77;;;20.30;;
9082;SDS011;4577;48.704;9.000;2023-02-14T08:43:37;36.63;;;19.77;;
9082;SDS011;4577;48.704;9.000;2023-02-14T08:46:03;39.17;;;21.00;;
9082;SDS011;4577;48.704;9.000;2023-02-14T08:48:29;38.87;;;20.07;;
9082;SDS011;4577;48.704;9.000;2023-02-14T08:50:55;57.70;;;21.00;;
9082;SDS011;4577;48.704;9.000;2023-02-14T08:53:21;50.90;;;20.10;;
9082;SDS011;4577;48.704;9.000;2023-02-14T08:55:47;38.37;;;19.80;;
9082;SDS011;4577;48.704;9.000;2023-02-14T08:58:13;37.63;;;20.73;;
9082;SDS011;4577;48.704;9.000;2023-02-14T09:00:39;60.73;;;22.03;;
9082;SDS011;4577;48.704;9.000;2023-02-14T09:03:05;43.77;;;21.00;;
9082;SDS011;4577;48.704;9.000;2023-02-14T09:05:32;61.50;;;22.00;;
9082;SDS011;4577;48.704;9.000;2023-02-14T09:07:58;55.13;;;23.60;;
9082;SDS011;4577;48.704;9.000;2023-02-14T09:10:23;157.67;;;29.60;;
9082;SDS011;4577;48.704;9.000;2023-02-14T09:12:50;60.87;;;22.97;;
9082;SDS011;4577;48.704;9.000;2023-02-14T09:15:16;48.40;;;21.93;;
9082;SDS011;4577;48.704;9.000;2023-02-14T09:17:41;47.20;;;21.43;;
9082;SDS011;4577;48.704;9.000;2023-02-14T09:20:10;51.43;;;25.20;;
9082;SDS011;4577;48.704;9.000;2023-02-14T09:22:36;58.23;;;22.97;;
9082;SDS011;4577;48.704;9.000;2023-02-14T09:25:03;50.27;;;21.57;;
9082;SDS011;4577;48.704;9.000;2023-02-14T09:27:29;50.37;;;21.40;;
9082;SDS011;4577;48.704;9.000;2023-02-14T09:29:56;51.90;;;21.10;;
9082;SDS011;4577;48.704;9.000;2023-02-14T09:32:22;53.17;;;21.60;;
9082;SDS011;4577;48.704;9.000;2023-02-14T09:34:50;45.80;;;21.67;;
9082;SDS011;4577;48.704;9.000;2023-02-14T09:37:16;84.13;;;24.87;;
9082;SDS011;4577;48.704;9.000;2023-02-14T09:39:42;85.53;;;26.73;;
9082;SDS011;4577;48.704;9.000;2023-02-14T09:44:53;53.70;;;23.40;;
9082;SDS011;4577;48.704;9.000;2023-02-14T09:47:29;58.23;;;24.03;;
9082;SDS011;4577;48.704;9.000;2023-02-14T09:49:58;42.50;;;20.67;;
9082;SDS011;4577;48.704;9.000;2023-02-14T09:52:28;36.20;;;20.20;;
9082;SDS011;4577;48.704;9.000;2023-02-14T09:54:56;64.80;;;22.50;;
9082;SDS011;4577;48.704;9.000;2023-02-14T09:59:54;34.60;;;19.97;;
9082;SDS011;4577;48.704;9.000;2023-02-14T10:05:20;35.20;;;18.80;;
9082;SDS011;4577;48.704;9.000;2023-02-14T10:10:31;33.60;;;20.27;;
9082;SDS011;4577;48.704;9.000;2023-02-14T10:16:04;30.40;;;19.27;;
9082;SDS011;4577;48.704;9.000;2023-02-14T10:20:59;34.70;;;18.83;;
9082;SDS011;4577;48.704;9.000;2023-02-14T10:25:58;31.60;;;19.20;;
9082;SDS011;4577;48.704;9.000;2023-02-14T10:28:48;31.77;;;20.13;;
9082;SDS011;4577;48.704;9.000;2023-02-14T10:33:54;34.43;;;19.97;;
9082;SDS011;4577;48.704;9.000;2023-02-14T10:49:39;86.10;;;27.03;;
9082;SDS011;4577;48.704;9.000;2023-02-14T10:52:21;41.03;;;22.60;;
9082;SDS011;4577;48.704;9.000;2023-02-14T10:54:54;75.47;;;34.77;;
9082;SDS011;4577;48.704;9.000;2023-02-14T11:02:32;69.60;;;31.97;;
9082;SDS011;4577;48.704;9.000;2023-02-14T11:05:23;44.47;;;23.10;;
9082;SDS011;4577;48.704;9.000;2023-02-14T11:07:55;53.33;;;23.50;;
9082;SDS011;4577;48.704;9.000;2023-02-14T11:10:24;36.20;;;20.00;;
9082;SDS011;4577;48.704;9.000;2023-02-14T11:12:54;29.93;;;18.60;;
9082;SDS011;4577;48.704;9.000;2023-02-14T11:15:28;30.43;;;19.67;;
9082;SDS011;4577;48.704;9.000;2023-02-14T11:18:14;51.17;;;27.77;;
9082;SDS011;4577;48.704;9.000;2023-02-14T11:20:58;34.77;;;21.07;;
9082;SDS011;4577;48.704;9.000;2023-02-14T11:23:25;29.10;;;17.40;;
9082;SDS011;4577;48.704;9.000;2023-02-14T11:25:51;37.27;;;19.23;;
9082;SDS011;4577;48.704;9.000;2023-02-14T11:28:20;27.60;;;17.87;;
9082;SDS011;4577;48.704;9.000;2023-02-14T11:30:46;27.63;;;18.20;;
9082;SDS011;4577;48.704;9.000;2023-02-14T11:35:58;33.90;;;18.10;;
9082;SDS011;4577;48.704;9.000;2023-02-14T11:38:42;31.80;;;18.57;;
9082;SDS011;4577;48.704;9.000;2023-02-14T11:41:18;24.93;;;16.43;;
9082;SDS011;4577;48.704;9.000;2023-02-14T11:43:44;29.33;;;18.90;;
9082;SDS011;4577;48.704;9.000;2023-02-14T11:49:01;28.93;;;17.83;;
9082;SDS011;4577;48.704;9.000;2023-02-14T11:51:34;51.90;;;18.50;;
9082;SDS011;4577;48.704;9.000;2023-02-14T11:54:03;28.03;;;16.97;;
9082;SDS011;4577;48.704;9.000;2023-02-14T12:01:51;30.97;;;15.33;;
9082;SDS011;4577;48.704;9.000;2023-02-14T12:04:19;30.97;;;17.60;;
9082;SDS011;4577;48.704;9.000;2023-02-14T12:06:50;57.87;;;17.30;;
9082;SDS011;4577;48.704;9.000;2023-02-14T12:09:24;25.57;;;16.27;;
9082;SDS011;4577;48.704;9.000;2023-02-14T12:11:55;31.53;;;16.83;;
9082;SDS011;4577;48.704;9.000;2023-02-14T12:14:27;25.27;;;16.17;;
9082;SDS011;4577;48.704;9.000;2023-02-14T12:22:43;24.30;;;13.67;;
9082;SDS011;4577;48.704;9.000;2023-02-14T12:25:15;31.10;;;14.47;;
9082;SDS011;4577;48.704;9.000;2023-02-14T12:27:57;31.10;;;15.03;;
9082;SDS011;4577;48.704;9.000;2023-02-14T12:30:29;28.80;;;14.20;;
9082;SDS011;4577;48.704;9.000;2023-02-14T12:32:57;23.77;;;14.57;;
9082;SDS011;4577;48.704;9.000;2023-02-14T12:49:16;28.83;;;14.20;;
9082;SDS011;4577;48.704;9.000;2023-02-14T12:52:19;35.37;;;14.80;;
9082;SDS011;4577;48.704;9.000;2023-02-14T12:57:56;24.00;;;15.30;;
9082;SDS011;4577;48.704;9.000;2023-02-14T13:09:13;33.87;;;19.33;;
9082;SDS011;4577;48.704;9.000;2023-02-14T13:15:08;28.80;;;18.73;;
9082;SDS011;4577;48.704;9.000;2023-02-14T13:21:06;35.47;;;20.53;;
9082;SDS011;4577;48.704;9.000;2023-02-14T13:23:36;35.70;;;20.33;;
9082;SDS011;4577;48.704;9.000;2023-02-14T13:26:05;41.23;;;20.63;;
9082;SDS011;4577;48.704;9.000;2023-02-14T13:28:31;37.43;;;20.23;;
9082;SDS011;4577;48.704;9.000;2023-02-14T13:31:00;29.87;;;18.97;;
9082;SDS011;4577;48.704;9.000;2023-02-14T13:33:27;26.23;;;18.90;;
9082;SDS011;4577;48.704;9.000;2023-02-14T13:35:59;36.73;;;20.50;;
9082;SDS011;4577;48.704;9.000;2023-02-14T13:38:27;30.93;;;19.53;;
9082;SDS011;4577;48.704;9.000;2023-02-14T13:40:55;30.40;;;20.10;;
9082;SDS011;4577;48.704;9.000;2023-02-14T13:46:58;30.53;;;19.40;;
9082;SDS011;4577;48.704;9.000;2023-02-14T13:49:00;33.70;;;20.37;;
9082;SDS011;4577;48.704;9.000;2023-02-14T13:54:25;32.67;;;19.00;;
9082;SDS011;4577;48.704;9.000;2023-02-14T13:56:55;31.10;;;20.07;;
9082;SDS011;4577;48.704;9.000;2023-02-14T13:59:31;29.33;;;19.87;;
9082;SDS011;4577;48.704;9.000;2023-02-14T14:02:41;29.00;;;19.03;;
9082;SDS011;4577;48.704;9.000;2023-02-14T14:04:50;26.40;;;19.77;;
9082;SDS011;4577;48.704;9.000;2023-02-14T14:07:20;31.13;;;20.30;;
9082;SDS011;4577;48.704;9.000;2023-02-14T14:17:32;29.73;;;20.17;;
9082;SDS011;4577;48.704;9.000;2023-02-14T14:20:00;37.63;;;22.00;;
9082;SDS011;4577;48.704;9.000;2023-02-14T14:22:48;38.43;;;19.17;;
9082;SDS011;4577;48.704;9.000;2023-02-14T14:28:03;39.43;;;19.87;;
9082;SDS011;4577;48.704;9.000;2023-02-14T14:30:44;24.40;;;16.87;;
9082;SDS011;4577;48.704;9.000;2023-02-14T14:33:11;31.17;;;18.03;;
9082;SDS011;4577;48.704;9.000;2023-02-14T14:35:55;34.13;;;17.00;;
9082;SDS011;4577;48.704;9.000;2023-02-14T14:38:23;24.93;;;15.97;;
9082;SDS011;4577;48.704;9.000;2023-02-14T14:40:50;27.10;;;16.93;;
9082;SDS011;4577;48.704;9.000;2023-02-14T14:45:51;23.80;;;15.80;;
9082;SDS011;4577;48.704;9.000;2023-02-14T14:53:57;35.47;;;16.30;;
9082;SDS011;4577;48.704;9.000;2023-02-14T14:56:26;32.00;;;15.50;;
9082;SDS011;4577;48.704;9.000;2023-02-14T14:58:55;21.80;;;13.63;;
9082;SDS011;4577;48.704;9.000;2023-02-14T15:06:42;21.80;;;14.83;;
9082;SDS011;4577;48.704;9.000;2023-02-14T15:09:12;26.33;;;14.47;;
9082;SDS011;4577;48.704;9.000;2023-02-14T15:11:46;19.90;;;13.70;;
9082;SDS011;4577;48.704;9.000;2023-02-14T15:14:32;23.20;;;14.40;;
9082;SDS011;4577;48.704;9.000;2023-02-14T15:19:28;22.97;;;14.43;;
9082;SDS011;4577;48.704;9.000;2023-02-14T15:22:04;49.97;;;17.23;;
9082;SDS011;4577;48.704;9.000;2023-02-14T15:24:49;31.10;;;16.00;;
9082;SDS011;4577;48.704;9.000;2023-02-14T15:27:17;23.90;;;15.37;;
9082;SDS011;4577;48.704;9.000;2023-02-14T15:29:56;24.80;;;17.90;;
9082;SDS011;4577;48.704;9.000;2023-02-14T15:32:31;43.67;;;25.77;;
9082;SDS011;4577;48.704;9.000;2023-02-14T15:35:03;80.90;;;43.00;;
9082;SDS011;4577;48.704;9.000;2023-02-14T15:37:30;33.13;;;21.23;;
9082;SDS011;4577;48.704;9.000;2023-02-14T15:39:57;43.87;;;19.53;;
9082;SDS011;4577;48.704;9.000;2023-02-14T15:42:25;25.80;;;17.10;;
9082;SDS011;4577;48.704;9.000;2023-02-14T15:47:51;74.47;;;21.90;;
9082;SDS011;4577;48.704;9.000;2023-02-14T15:50:35;41.27;;;20.67;;
9082;SDS011;4577;48.704;9.000;2023-02-14T15:55:43;29.20;;;18.67;;
9082;SDS011;4577;48.704;9.000;2023-02-14T15:58:13;31.97;;;21.73;;
9082;SDS011;4577;48.704;9.000;2023-02-14T16:00:53;38.00;;;22.20;;
9082;SDS011;4577;48.704;9.000;2023-02-14T16:03:20;33.03;;;18.63;;
9082;SDS011;4577;48.704;9.000;2023-02-14T16:05:48;28.27;;;19.27;;
9082;SDS011;4577;48.704;9.000;2023-02-14T16:11:26;28.00;;;18.90;;
9082;SDS011;4577;48.704;9.000;2023-02-14T16:14:18;32.30;;;18.73;;
9082;SDS011;4577;48.704;9.000;2023-02-14T16:17:56;30.80;;;18.23;;
9082;SDS011;4577;48.704;9.000;2023-02-14T16:19:58;27.30;;;18.17;;
9082;SDS011;4577;48.704;9.000;2023-02-14T16:22:25;30.80;;;19.47;;
9082;SDS011;4577;48.704;9.000;2023-02-14T16:24:56;31.47;;;20.47;;
9082;SDS011;4577;48.704;9.000;2023-02-14T16:27:23;29.63;;;19.10;;
9082;SDS011;4577;48.704;9.000;2023-02-14T16:29:49;29.70;;;18.77;;
9082;SDS011;4577;48.704;9.000;2023-02-14T16:32:23;33.10;;;18.63;;
9082;SDS011;4577;48.704;9.000;2023-02-14T16:34:52;32.77;;;19.73;;
9082;SDS011;4577;48.704;9.000;2023-02-14T16:37:20;32.30;;;19.43;;
9082;SDS011;4577;48.704;9.000;2023-02-14T16:39:48;33.97;;;21.43;;
9082;SDS011;4577;48.704;9.000;2023-02-14T16:42:16;39.40;;;20.70;;
9082;SDS011;4577;48.704;9.000;2023-02-14T16:44:43;29.27;;;20.17;;
9082;SDS011;4577;48.704;9.000;2023-02-14T16:47:11;34.80;;;20.63;;
9082;SDS011;4577;48.704;9.000;2023-02-14T16:49:38;32.70;;;20.80;;
9082;SDS011;4577;48.704;9.000;2023-02-14T16:52:05;32.00;;;21.70;;
9082;SDS011;4577;48.704;9.000;2023-02-14T16:54:34;27.63;;;20.07;;
9082;SDS011;4577;48.704;9.000;2023-02-14T16:57:01;32.00;;;20.47;;
9082;SDS011;4577;48.704;9.000;2023-02-14T16:59:29;32.33;;;19.53;;
9082;SDS011;4577;48.704;9.000;2023-02-14T17:01:57;38.23;;;22.13;;
9082;SDS011;4577;48.704;9.000;2023-02-14T17:04:23;32.73;;;20.17;;
9082;SDS011;4577;48.704;9.000;2023-02-14T17:06:53;33.10;;;20.30;;
9082;SDS011;4577;48.704;9.000;2023-02-14T17:09:25;30.77;;;21.40;;
9082;SDS011;4577;48.704;9.000;2023-02-14T17:11:54;36.63;;;24.07;;
9082;SDS011;4577;48.704;9.000;2023-02-14T17:14:23;38.03;;;23.47;;
9082;SDS011;4577;48.704;9.000;2023-02-14T17:16:53;47.07;;;22.80;;
9082;SDS011;4577;48.704;9.000;2023-02-14T17:19:20;34.50;;;22.63;;
9082;SDS011;4577;48.704;9.000;2023-02-14T17:21:55;39.07;;;25.50;;
9082;SDS011;4577;48.704;9.000;2023-02-14T17:24:22;40.80;;;24.70;;
9082;SDS011;4577;48.704;9.000;2023-02-14T17:26:48;38.77;;;23.90;;
9082;SDS011;4577;48.704;9.000;2023-02-14T17:29:14;48.03;;;29.20;;
9082;SDS011;4577;48.704;9.000;2023-02-14T17:31:40;46.87;;;28.57;;
9082;SDS011;4577;48.704;9.000;2023-02-14T17:34:07;39.13;;;25.10;;
9082;SDS011;4577;48.704;9.000;2023-02-14T17:36:35;42.60;;;25.73;;
9082;SDS011;4577;48.704;9.000;2023-02-14T17:39:02;46.23;;;25.90;;
9082;SDS011;4577;48.704;9.000;2023-02-14T17:41:28;41.87;;;27.10;;
9082;SDS011;4577;48.704;9.000;2023-02-14T17:43:55;47.60;;;27.50;;
9082;SDS011;4577;48.704;9.000;2023-02-14T17:46:24;41.23;;;26.70;;
9082;SDS011;4577;48.704;9.000;2023-02-14T17:48:55;45.90;;;25.90;;
9082;SDS011;4577;48.704;9.000;2023-02-14T17:51:26;46.27;;;29.70;;
9082;SDS011;4577;48.704;9.000;2023-02-14T17:53:53;52.40;;;31.30;;
9082;SDS011;4577;48.704;9.000;2023-02-14T17:56:20;40.93;;;24.67;;
9082;SDS011;4577;48.704;9.000;2023-02-14T17:58:49;43.53;;;22.90;;